sensor_id;sensor_type;location;lat;lon;timestamp;P1;durP1;ratioP1;P2;durP2;ratioP2
4563;SDS011;2294;51.818;8.484;2023-03-01T00:01:35;6.50;;;5.40;;
4563;SDS011;2294;51.818;8.484;2023-03-01T00:04:02;10.53;;;5.23;;
4563;SDS011;2294;51.818;8.484;2023-03-01T00:06:29;6.93;;;4.27;;
4563;SDS011;2294;51.818;8.484;2023-03-01T00:08:56;8.43;;;5.30;;
4563;SDS011;2294;51.818;8.484;2023-03-01T00:11:25;6.50;;;5.03;;
4563;SDS011;2294;51.818;8.484;2023-03-01T00:13:53;10.30;;;6.00;;
4563;SDS011;2294;51.818;8.484;2023-03-01T00:16:22;7.00;;;5.33;;
4563;SDS011;2294;51.818;8.484;2023-03-01T00:18:50;9.30;;;4.80;;
4563;SDS011;2294;51.818;8.484;2023-03-01T00:21:18;9.50;;;5.33;;
4563;SDS011;2294;51.818;8.484;2023-03-01T00:23:47;6.27;;;4.40;;
4563;SDS011;2294;51.818;8.484;2023-03-01T00:26:15;8.20;;;4.80;;
4563;SDS011;2294;51.818;8.484;2023-03-01T00:28:44;13.03;;;5.97;;
4563;SDS011;2294;51.818;8.484;2023-03-01T00:31:12;7.57;;;5.70;;
4563;SDS011;2294;51.818;8.484;2023-03-01T00:33:42;9.23;;;6.17;;
4563;SDS011;2294;51.818;8.484;2023-03-01T00:36:09;9.80;;;5.60;;
4563;SDS011;2294;51.818;8.484;2023-03-01T00:38:37;8.67;;;5.90;;
4563;SDS011;2294;51.818;8.484;2023-03-01T00:41:05;10.00;;;5.67;;
4563;SDS011;2294;51.818;8.484;2023-03-01T00:43:33;12.63;;;6.83;;
4563;SDS011;2294;51.818;8.484;2023-03-01T00:46:04;11.43;;;5.47;;
4563;SDS011;2294;51.818;8.484;2023-03-01T00:48:32;10.77;;;6.30;;
4563;SDS011;2294;51.818;8.484;2023-03-01T00:51:03;8.30;;;5.70;;
4563;SDS011;2294;51.818;8.484;2023-03-01T00:53:32;7.60;;;5.00;;
4563;SDS011;2294;51.818;8.484;2023-03-01T00:55:59;6.70;;;5.00;;
4563;SDS011;2294;51.818;8.484;2023-03-01T00:58:26;7.00;;;5.17;;
4563;SDS011;2294;51.818;8.484;2023-03-01T01:00:53;13.90;;;5.87;;
4563;SDS011;2294;51.818;8.484;2023-03-01T01:03:22;7.97;;;5.30;;
4563;SDS011;2294;51.818;8.484;2023-03-01T01:05:49;11.17;;;6.30;;
4563;SDS011;2294;51.818;8.484;2023-03-01T01:08:16;9.37;;;5.90;;
4563;SDS011;2294;51.818;8.484;2023-03-01T01:10:44;7.70;;;5.50;;
4563;SDS011;2294;51.818;8.484;2023-03-01T01:13:11;8.57;;;5.90;;
4563;SDS011;2294;51.818;8.484;2023-03-01T01:15:39;10.40;;;5.67;;
4563;SDS011;2294;51.818;8.484;2023-03-01T01:18:06;8.67;;;5.80;;
4563;SDS011;2294;51.818;8.484;2023-03-01T01:20:35;7.00;;;4.90;;
4563;SDS011;2294;51.818;8.484;2023-03-01T01:23:04;6.27;;;5.50;;
4563;SDS011;2294;51.818;8.484;2023-03-01T01:25:33;6.83;;;5.13;;
4563;SDS011;2294;51.818;8.484;2023-03-01T01:28:01;7.53;;;5.30;;
4563;SDS011;2294;51.818;8.484;2023-03-01T01:30:28;6.80;;;5.77;;
4563;SDS011;2294;51.818;8.484;2023-03-01T01:32:55;8.90;;;4.80;;
4563;SDS011;2294;51.818;8.484;2023-03-01T01:35:21;10.07;;;5.20;;
4563;SDS011;2294;51.818;8.484;2023-03-01T01:37:50;6.73;;;5.07;;
4563;SDS011;2294;51.818;8.484;2023-03-01T01:40:17;8.37;;;5.40;;
4563;SDS011;2294;51.818;8.484;2023-03-01T01:42:44;7.87;;;5.67;;
4563;SDS011;2294;51.818;8.484;2023-03-01T01:45:28;11.07;;;4.67;;
4563;SDS011;2294;51.818;8.484;2023-03-01T01:47:59;8.63;;;5.23;;
4563;SDS011;2294;51.818;8.484;2023-03-01T01:50:29;7.67;;;5.60;;
4563;SDS011;2294;51.818;8.484;2023-03-01T01:53:04;6.47;;;4.80;;
4563;SDS011;2294;51.818;8.484;2023-03-01T01:55:33;10.00;;;6.10;;
4563;SDS011;2294;51.818;8.484;2023-03-01T01:58:02;7.30;;;4.93;;
4563;SDS011;2294;51.818;8.484;2023-03-01T02:00:31;11.63;;;5.47;;
4563;SDS011;2294;51.818;8.484;2023-03-01T02:02:59;9.53;;;5.80;;
4563;SDS011;2294;51.818;8.484;2023-03-01T02:05:32;11.63;;;6.30;;
4563;SDS011;2294;51.818;8.484;2023-03-01T02:08:07;8.47;;;5.83;;
4563;SDS011;2294;51.818;8.484;2023-03-01T02:10:37;12.30;;;5.37;;
4563;SDS011;2294;51.818;8.484;2023-03-01T02:13:04;10.10;;;5.47;;
4563;SDS011;2294;51.818;8.484;2023-03-01T02:15:32;9.10;;;5.80;;
4563;SDS011;2294;51.818;8.484;2023-03-01T02:18:00;7.93;;;5.50;;
4563;SDS011;2294;51.818;8.484;2023-03-01T02:20:30;7.10;;;5.00;;
4563;SDS011;2294;51.818;8.484;2023-03-01T02:23:03;13.00;;;5.37;;
4563;SDS011;2294;51.818;8.484;2023-03-01T02:25:33;7.77;;;5.23;;
4563;SDS011;2294;51.818;8.484;2023-03-01T02:28:06;7.60;;;5.40;;
4563;SDS011;2294;51.818;8.484;2023-03-01T02:30:43;8.20;;;6.37;;
4563;SDS011;2294;51.818;8.484;2023-03-01T02:33:26;6.90;;;5.03;;
4563;SDS011;2294;51.818;8.484;2023-03-01T02:35:57;10.57;;;5.03;;
4563;SDS011;2294;51.818;8.484;2023-03-01T02:38:26;7.17;;;5.60;;
4563;SDS011;2294;51.818;8.484;2023-03-01T02:40:54;15.20;;;6.37;;
4563;SDS011;2294;51.818;8.484;2023-03-01T02:43:23;7.83;;;5.37;;
4563;SDS011;2294;51.818;8.484;2023-03-01T02:45:57;8.23;;;5.13;;
4563;SDS011;2294;51.818;8.484;2023-03-01T02:48:25;7.40;;;4.87;;
4563;SDS011;2294;51.818;8.484;2023-03-01T02:50:55;10.27;;;6.47;;
4563;SDS011;2294;51.818;8.484;2023-03-01T02:53:32;7.97;;;5.30;;
4563;SDS011;2294;51.818;8.484;2023-03-01T02:56:05;7.50;;;5.73;;
4563;SDS011;2294;51.818;8.484;2023-03-01T02:58:37;8.30;;;5.50;;
4563;SDS011;2294;51.818;8.484;2023-03-01T03:01:12;8.53;;;5.17;;
4563;SDS011;2294;51.818;8.484;2023-03-01T03:03:40;10.40;;;5.87;;
4563;SDS011;2294;51.818;8.484;2023-03-01T03:06:07;9.20;;;5.43;;
4563;SDS011;2294;51.818;8.484;2023-03-01T03:08:34;7.40;;;5.93;;
4563;SDS011;2294;51.818;8.484;2023-03-01T03:11:01;8.20;;;4.90;;
4563;SDS011;2294;51.818;8.484;2023-03-01T03:13:28;6.83;;;5.03;;
4563;SDS011;2294;51.818;8.484;2023-03-01T03:15:55;8.43;;;5.70;;
4563;SDS011;2294;51.818;8.484;2023-03-01T03:18:24;8.37;;;6.30;;
4563;SDS011;2294;51.818;8.484;2023-03-01T03:20:51;10.47;;;7.07;;
4563;SDS011;2294;51.818;8.484;2023-03-01T03:23:19;9.07;;;5.60;;
4563;SDS011;2294;51.818;8.484;2023-03-01T03:25:48;8.27;;;5.73;;
4563;SDS011;2294;51.818;8.484;2023-03-01T03:28:15;7.63;;;5.07;;
4563;SDS011;2294;51.818;8.484;2023-03-01T03:30:43;9.57;;;5.40;;
4563;SDS011;2294;51.818;8.484;2023-03-01T03:33:12;10.20;;;4.90;;
4563;SDS011;2294;51.818;8.484;2023-03-01T03:35:41;10.63;;;6.50;;
4563;SDS011;2294;51.818;8.484;2023-03-01T03:38:10;10.63;;;5.50;;
4563;SDS011;2294;51.818;8.484;2023-03-01T03:40:42;12.10;;;4.97;;
4563;SDS011;2294;51.818;8.484;2023-03-01T03:43:11;8.70;;;4.70;;
4563;SDS011;2294;51.818;8.484;2023-03-01T03:45:39;6.90;;;4.20;;
4563;SDS011;2294;51.818;8.484;2023-03-01T03:48:07;9.17;;;4.90;;
4563;SDS011;2294;51.818;8.484;2023-03-01T03:50:35;9.40;;;4.83;;
4563;SDS011;2294;51.818;8.484;2023-03-01T03:53:04;11.13;;;4.77;;
4563;SDS011;2294;51.818;8.484;2023-03-01T03:55:33;9.43;;;4.97;;
4563;SDS011;2294;51.818;8.484;2023-03-01T03:58:04;9.17;;;5.20;;
4563;SDS011;2294;51.818;8.484;2023-03-01T04:00:33;8.50;;;5.03;;
4563;SDS011;2294;51.818;8.484;2023-03-01T04:03:00;9.40;;;5.70;;
4563;SDS011;2294;51.818;8.484;2023-03-01T04:05:27;8.60;;;5.00;;
4563;SDS011;2294;51.818;8.484;2023-03-01T04:07:54;10.37;;;6.23;;
4563;SDS011;2294;51.818;8.484;2023-03-01T04:10:34;7.30;;;4.80;;
4563;SDS011;2294;51.818;8.484;2023-03-01T04:13:02;10.10;;;4.83;;
4563;SDS011;2294;51.818;8.484;2023-03-01T04:15:30;10.73;;;4.73;;
4563;SDS011;2294;51.818;8.484;2023-03-01T04:17:58;8.00;;;5.47;;
4563;SDS011;2294;51.818;8.484;2023-03-01T04:20:26;8.30;;;4.70;;
4563;SDS011;2294;51.818;8.484;2023-03-01T04:22:57;9.20;;;5.47;;
4563;SDS011;2294;51.818;8.484;2023-03-01T04:25:36;6.57;;;5.00;;
4563;SDS011;2294;51.818;8.484;2023-03-01T04:28:04;6.53;;;4.90;;
4563;SDS011;2294;51.818;8.484;2023-03-01T04:30:31;6.57;;;5.17;;
4563;SDS011;2294;51.818;8.484;2023-03-01T04:33:01;9.97;;;6.10;;
4563;SDS011;2294;51.818;8.484;2023-03-01T04:35:29;12.23;;;6.33;;
4563;SDS011;2294;51.818;8.484;2023-03-01T04:37:56;8.93;;;5.30;;
4563;SDS011;2294;51.818;8.484;2023-03-01T04:40:23;9.27;;;5.30;;
4563;SDS011;2294;51.818;8.484;2023-03-01T04:42:52;8.20;;;5.20;;
4563;SDS011;2294;51.818;8.484;2023-03-01T04:45:19;8.37;;;5.40;;
4563;SDS011;2294;51.818;8.484;2023-03-01T04:47:46;7.73;;;4.50;;
4563;SDS011;2294;51.818;8.484;2023-03-01T04:50:14;8.30;;;5.07;;
4563;SDS011;2294;51.818;8.484;2023-03-01T04:52:45;7.83;;;4.97;;
4563;SDS011;2294;51.818;8.484;2023-03-01T04:55:13;8.30;;;5.50;;
4563;SDS011;2294;51.818;8.484;2023-03-01T04:57:40;14.27;;;6.50;;
4563;SDS011;2294;51.818;8.484;2023-03-01T05:00:09;10.03;;;5.30;;
4563;SDS011;2294;51.818;8.484;2023-03-01T05:02:46;10.60;;;5.20;;
4563;SDS011;2294;51.818;8.484;2023-03-01T05:05:23;8.53;;;5.40;;
4563;SDS011;2294;51.818;8.484;2023-03-01T05:07:52;10.87;;;5.53;;
4563;SDS011;2294;51.818;8.484;2023-03-01T05:10:20;8.70;;;6.03;;
4563;SDS011;2294;51.818;8.484;2023-03-01T05:12:48;9.83;;;5.00;;
4563;SDS011;2294;51.818;8.484;2023-03-01T05:15:18;7.37;;;5.60;;
4563;SDS011;2294;51.818;8.484;2023-03-01T05:17:46;10.10;;;5.57;;
4563;SDS011;2294;51.818;8.484;2023-03-01T05:20:13;12.63;;;5.73;;
4563;SDS011;2294;51.818;8.484;2023-03-01T05:22:41;12.70;;;5.13;;
4563;SDS011;2294;51.818;8.484;2023-03-01T05:25:08;15.00;;;5.17;;
4563;SDS011;2294;51.818;8.484;2023-03-01T05:27:35;14.90;;;6.20;;
4563;SDS011;2294;51.818;8.484;2023-03-01T05:30:02;10.00;;;5.80;;
4563;SDS011;2294;51.818;8.484;2023-03-01T05:32:40;8.90;;;5.03;;
4563;SDS011;2294;51.818;8.484;2023-03-01T05:35:10;10.53;;;6.20;;
4563;SDS011;2294;51.818;8.484;2023-03-01T05:37:39;10.73;;;5.50;;
4563;SDS011;2294;51.818;8.484;2023-03-01T05:40:08;9.10;;;5.50;;
4563;SDS011;2294;51.818;8.484;2023-03-01T05:42:41;7.63;;;5.70;;
4563;SDS011;2294;51.818;8.484;2023-03-01T05:45:09;14.80;;;6.70;;
4563;SDS011;2294;51.818;8.484;2023-03-01T05:47:37;13.10;;;7.00;;
4563;SDS011;2294;51.818;8.484;2023-03-01T05:50:10;8.27;;;4.60;;
4563;SDS011;2294;51.818;8.484;2023-03-01T05:52:38;11.67;;;5.70;;
4563;SDS011;2294;51.818;8.484;2023-03-01T05:55:06;7.53;;;5.03;;
4563;SDS011;2294;51.818;8.484;2023-03-01T05:57:33;10.40;;;6.37;;
4563;SDS011;2294;51.818;8.484;2023-03-01T06:00:00;11.27;;;7.13;;
4563;SDS011;2294;51.818;8.484;2023-03-01T06:02:27;9.60;;;6.10;;
4563;SDS011;2294;51.818;8.484;2023-03-01T06:04:55;10.77;;;5.83;;
4563;SDS011;2294;51.818;8.484;2023-03-01T06:07:23;9.93;;;5.67;;
4563;SDS011;2294;51.818;8.484;2023-03-01T06:09:50;12.93;;;6.40;;
4563;SDS011;2294;51.818;8.484;2023-03-01T06:12:17;11.87;;;6.40;;
4563;SDS011;2294;51.818;8.484;2023-03-01T06:14:45;10.90;;;6.60;;
4563;SDS011;2294;51.818;8.484;2023-03-01T06:17:12;12.87;;;7.17;;
4563;SDS011;2294;51.818;8.484;2023-03-01T06:19:39;12.90;;;5.70;;
4563;SDS011;2294;51.818;8.484;2023-03-01T06:22:06;12.07;;;6.90;;
4563;SDS011;2294;51.818;8.484;2023-03-01T06:24:35;12.50;;;7.67;;
4563;SDS011;2294;51.818;8.484;2023-03-01T06:27:02;14.97;;;8.30;;
4563;SDS011;2294;51.818;8.484;2023-03-01T06:29:29;18.67;;;8.33;;
4563;SDS011;2294;51.818;8.484;2023-03-01T06:31:56;13.93;;;7.57;;
4563;SDS011;2294;51.818;8.484;2023-03-01T06:34:23;11.10;;;5.63;;
4563;SDS011;2294;51.818;8.484;2023-03-01T06:36:50;12.90;;;6.23;;
4563;SDS011;2294;51.818;8.484;2023-03-01T06:39:17;8.57;;;4.80;;
4563;SDS011;2294;51.818;8.484;2023-03-01T06:41:45;10.17;;;5.57;;
4563;SDS011;2294;51.818;8.484;2023-03-01T06:44:12;8.83;;;6.40;;
4563;SDS011;2294;51.818;8.484;2023-03-01T06:46:39;9.33;;;6.03;;
4563;SDS011;2294;51.818;8.484;2023-03-01T06:49:06;7.50;;;5.40;;
4563;SDS011;2294;51.818;8.484;2023-03-01T06:51:34;16.73;;;6.57;;
4563;SDS011;2294;51.818;8.484;2023-03-01T06:54:02;9.07;;;5.27;;
4563;SDS011;2294;51.818;8.484;2023-03-01T06:56:29;17.63;;;6.93;;
4563;SDS011;2294;51.818;8.484;2023-03-01T06:58:58;10.07;;;6.93;;
4563;SDS011;2294;51.818;8.484;2023-03-01T07:01:25;11.67;;;8.27;;
4563;SDS011;2294;51.818;8.484;2023-03-01T07:03:51;19.03;;;8.70;;
4563;SDS011;2294;51.818;8.484;2023-03-01T07:06:18;13.77;;;7.80;;
4563;SDS011;2294;51.818;8.484;2023-03-01T07:08:46;13.20;;;7.87;;
4563;SDS011;2294;51.818;8.484;2023-03-01T07:11:12;16.60;;;8.43;;
4563;SDS011;2294;51.818;8.484;2023-03-01T07:13:40;14.40;;;8.17;;
4563;SDS011;2294;51.818;8.484;2023-03-01T07:16:08;15.03;;;7.63;;
4563;SDS011;2294;51.818;8.484;2023-03-01T07:18:35;11.30;;;7.07;;
4563;SDS011;2294;51.818;8.484;2023-03-01T07:21:05;14.73;;;7.33;;
4563;SDS011;2294;51.818;8.484;2023-03-01T07:23:33;11.17;;;7.40;;
4563;SDS011;2294;51.818;8.484;2023-03-01T07:26:00;11.00;;;6.93;;
4563;SDS011;2294;51.818;8.484;2023-03-01T07:28:27;14.20;;;8.47;;
4563;SDS011;2294;51.818;8.484;2023-03-01T07:30:54;12.50;;;8.77;;
4563;SDS011;2294;51.818;8.484;2023-03-01T07:33:22;11.57;;;7.30;;
4563;SDS011;2294;51.818;8.484;2023-03-01T07:35:55;14.20;;;7.90;;
4563;SDS011;2294;51.818;8.484;2023-03-01T07:38:22;17.13;;;8.40;;
4563;SDS011;2294;51.818;8.484;2023-03-01T07:40:50;14.70;;;9.90;;
4563;SDS011;2294;51.818;8.484;2023-03-01T07:43:16;12.10;;;8.20;;
4563;SDS011;2294;51.818;8.484;2023-03-01T07:45:43;15.67;;;9.03;;
4563;SDS011;2294;51.818;8.484;2023-03-01T07:48:10;19.73;;;8.67;;
4563;SDS011;2294;51.818;8.484;2023-03-01T07:50:38;15.63;;;7.47;;
4563;SDS011;2294;51.818;8.484;2023-03-01T07:53:05;17.40;;;7.67;;
4563;SDS011;2294;51.818;8.484;2023-03-01T07:55:32;24.20;;;10.10;;
4563;SDS011;2294;51.818;8.484;2023-03-01T07:57:59;32.80;;;10.47;;
4563;SDS011;2294;51.818;8.484;2023-03-01T08:00:26;18.17;;;10.27;;
4563;SDS011;2294;51.818;8.484;2023-03-01T08:02:53;27.53;;;9.30;;
4563;SDS011;2294;51.818;8.484;2023-03-01T08:05:19;27.10;;;9.30;;
4563;SDS011;2294;51.818;8.484;2023-03-01T08:07:48;16.07;;;9.50;;
4563;SDS011;2294;51.818;8.484;2023-03-01T08:10:15;21.50;;;10.40;;
4563;SDS011;2294;51.818;8.484;2023-03-01T08:12:42;19.50;;;9.50;;
4563;SDS011;2294;51.818;8.484;2023-03-01T08:15:10;13.23;;;8.37;;
4563;SDS011;2294;51.818;8.484;2023-03-01T08:17:38;13.93;;;7.97;;
4563;SDS011;2294;51.818;8.484;2023-03-01T08:20:05;11.13;;;6.90;;
4563;SDS011;2294;51.818;8.484;2023-03-01T08:22:32;17.20;;;9.40;;
4563;SDS011;2294;51.818;8.484;2023-03-01T08:25:01;23.60;;;9.30;;
4563;SDS011;2294;51.818;8.484;2023-03-01T08:27:28;15.97;;;7.90;;
4563;SDS011;2294;51.818;8.484;2023-03-01T08:29:55;13.33;;;8.50;;
4563;SDS011;2294;51.818;8.484;2023-03-01T08:32:22;12.93;;;7.90;;
4563;SDS011;2294;51.818;8.484;2023-03-01T08:34:49;18.40;;;8.70;;
4563;SDS011;2294;51.818;8.484;2023-03-01T08:37:15;14.60;;;7.90;;
4563;SDS011;2294;51.818;8.484;2023-03-01T08:39:42;14.37;;;7.10;;
4563;SDS011;2294;51.818;8.484;2023-03-01T08:42:10;16.97;;;9.33;;
4563;SDS011;2294;51.818;8.484;2023-03-01T08:44:37;16.30;;;7.43;;
4563;SDS011;2294;51.818;8.484;2023-03-01T08:47:04;13.50;;;7.47;;
4563;SDS011;2294;51.818;8.484;2023-03-01T08:49:31;11.87;;;7.70;;
4563;SDS011;2294;51.818;8.484;2023-03-01T08:51:58;13.20;;;7.10;;
4563;SDS011;2294;51.818;8.484;2023-03-01T08:54:26;14.07;;;7.10;;
4563;SDS011;2294;51.818;8.484;2023-03-01T08:56:53;11.63;;;7.13;;
4563;SDS011;2294;51.818;8.484;2023-03-01T08:59:21;11.43;;;6.63;;
4563;SDS011;2294;51.818;8.484;2023-03-01T09:01:48;10.90;;;7.20;;
4563;SDS011;2294;51.818;8.484;2023-03-01T09:04:15;14.80;;;6.30;;
4563;SDS011;2294;51.818;8.484;2023-03-01T09:06:42;16.27;;;6.30;;
4563;SDS011;2294;51.818;8.484;2023-03-01T09:09:11;8.50;;;5.57;;
4563;SDS011;2294;51.818;8.484;2023-03-01T09:11:41;9.77;;;6.00;;
4563;SDS011;2294;51.818;8.484;2023-03-01T09:14:08;9.40;;;6.43;;
4563;SDS011;2294;51.818;8.484;2023-03-01T09:16:36;9.03;;;6.43;;
4563;SDS011;2294;51.818;8.484;2023-03-01T09:19:04;10.40;;;6.60;;
4563;SDS011;2294;51.818;8.484;2023-03-01T09:21:31;10.37;;;6.30;;
4563;SDS011;2294;51.818;8.484;2023-03-01T09:23:58;9.87;;;5.70;;
4563;SDS011;2294;51.818;8.484;2023-03-01T09:26:25;10.63;;;5.63;;
4563;SDS011;2294;51.818;8.484;2023-03-01T09:28:52;13.33;;;6.70;;
4563;SDS011;2294;51.818;8.484;2023-03-01T09:31:21;14.87;;;7.37;;
4563;SDS011;2294;51.818;8.484;2023-03-01T09:33:51;12.53;;;7.03;;
4563;SDS011;2294;51.818;8.484;2023-03-01T09:36:20;10.90;;;6.47;;
4563;SDS011;2294;51.818;8.484;2023-03-01T09:38:48;10.60;;;6.57;;
4563;SDS011;2294;51.818;8.484;2023-03-01T09:41:22;8.90;;;5.53;;
4563;SDS011;2294;51.818;8.484;2023-03-01T09:44:03;19.50;;;6.90;;
4563;SDS011;2294;51.818;8.484;2023-03-01T09:46:37;10.90;;;6.23;;
4563;SDS011;2294;51.818;8.484;2023-03-01T09:49:10;11.47;;;6.07;;
4563;SDS011;2294;51.818;8.484;2023-03-01T09:51:42;8.77;;;6.13;;
4563;SDS011;2294;51.818;8.484;2023-03-01T09:54:14;13.07;;;5.87;;
4563;SDS011;2294;51.818;8.484;2023-03-01T09:56:42;10.70;;;5.97;;
4563;SDS011;2294;51.818;8.484;2023-03-01T09:59:18;9.73;;;6.10;;
4563;SDS011;2294;51.818;8.484;2023-03-01T10:01:52;8.77;;;5.53;;
4563;SDS011;2294;51.818;8.484;2023-03-01T10:04:39;9.20;;;5.40;;
4563;SDS011;2294;51.818;8.484;2023-03-01T10:07:17;11.10;;;5.57;;
4563;SDS011;2294;51.818;8.484;2023-03-01T10:09:52;9.67;;;5.90;;
4563;SDS011;2294;51.818;8.484;2023-03-01T10:12:20;9.87;;;5.80;;
4563;SDS011;2294;51.818;8.484;2023-03-01T10:14:53;10.57;;;5.80;;
4563;SDS011;2294;51.818;8.484;2023-03-01T10:17:26;9.47;;;5.33;;
4563;SDS011;2294;51.818;8.484;2023-03-01T10:22:48;9.20;;;5.27;;
4563;SDS011;2294;51.818;8.484;2023-03-01T10:25:20;10.07;;;5.40;;
4563;SDS011;2294;51.818;8.484;2023-03-01T10:27:59;8.90;;;5.47;;
4563;SDS011;2294;51.818;8.484;2023-03-01T10:30:34;7.23;;;5.23;;
4563;SDS011;2294;51.818;8.484;2023-03-01T10:33:05;10.30;;;5.30;;
4563;SDS011;2294;51.818;8.484;2023-03-01T10:35:41;11.10;;;5.17;;
4563;SDS011;2294;51.818;8.484;2023-03-01T10:38:09;8.87;;;5.10;;
4563;SDS011;2294;51.818;8.484;2023-03-01T10:40:50;8.20;;;5.10;;
4563;SDS011;2294;51.818;8.484;2023-03-01T10:43:19;4.53;;;4.07;;
4563;SDS011;2294;51.818;8.484;2023-03-01T10:45:47;7.67;;;4.63;;
4563;SDS011;2294;51.818;8.484;2023-03-01T10:48:15;10.13;;;5.10;;
4563;SDS011;2294;51.818;8.484;2023-03-01T10:50:46;9.00;;;5.10;;
4563;SDS011;2294;51.818;8.484;2023-03-01T10:53:24;8.80;;;4.90;;
4563;SDS011;2294;51.818;8.484;2023-03-01T10:55:58;7.40;;;4.63;;
4563;SDS011;2294;51.818;8.484;2023-03-01T10:58:27;8.10;;;5.03;;
4563;SDS011;2294;51.818;8.484;2023-03-01T11:00:55;6.40;;;4.60;;
4563;SDS011;2294;51.818;8.484;2023-03-01T11:03:23;7.77;;;5.17;;
4563;SDS011;2294;51.818;8.484;2023-03-01T11:05:54;8.40;;;4.67;;
4563;SDS011;2294;51.818;8.484;2023-03-01T11:08:30;11.17;;;5.23;;
4563;SDS011;2294;51.818;8.484;2023-03-01T11:11:06;6.00;;;4.57;;
4563;SDS011;2294;51.818;8.484;2023-03-01T11:13:51;9.23;;;4.50;;
4563;SDS011;2294;51.818;8.484;2023-03-01T11:16:33;9.90;;;3.93;;
4563;SDS011;2294;51.818;8.484;2023-03-01T11:19:14;6.67;;;4.90;;
4563;SDS011;2294;51.818;8.484;2023-03-01T11:21:47;10.67;;;5.77;;
4563;SDS011;2294;51.818;8.484;2023-03-01T11:24:30;5.43;;;4.70;;
4563;SDS011;2294;51.818;8.484;2023-03-01T11:27:06;9.87;;;5.23;;
4563;SDS011;2294;51.818;8.484;2023-03-01T11:29:43;9.70;;;5.07;;
4563;SDS011;2294;51.818;8.484;2023-03-01T11:32:16;8.33;;;5.23;;
4563;SDS011;2294;51.818;8.484;2023-03-01T11:34:47;9.40;;;5.03;;
4563;SDS011;2294;51.818;8.484;2023-03-01T11:37:22;6.20;;;4.17;;
4563;SDS011;2294;51.818;8.484;2023-03-01T11:39:59;6.77;;;4.30;;
4563;SDS011;2294;51.818;8.484;2023-03-01T11:42:40;7.80;;;5.00;;
4563;SDS011;2294;51.818;8.484;2023-03-01T11:45:14;7.00;;;4.10;;
4563;SDS011;2294;51.818;8.484;2023-03-01T11:47:45;14.33;;;5.50;;
4563;SDS011;2294;51.818;8.484;2023-03-01T11:50:20;16.50;;;5.27;;
4563;SDS011;2294;51.818;8.484;2023-03-01T11:52:59;8.40;;;4.87;;
4563;SDS011;2294;51.818;8.484;2023-03-01T11:58:33;8.83;;;4.47;;
4563;SDS011;2294;51.818;8.484;2023-03-01T12:01:13;10.03;;;4.57;;
4563;SDS011;2294;51.818;8.484;2023-03-01T12:03:52;11.00;;;5.57;;
4563;SDS011;2294;51.818;8.484;2023-03-01T12:06:50;8.40;;;4.50;;
4563;SDS011;2294;51.818;8.484;2023-03-01T12:09:30;8.50;;;5.03;;
4563;SDS011;2294;51.818;8.484;2023-03-01T12:21:04;8.30;;;5.20;;
4563;SDS011;2294;51.818;8.484;2023-03-01T12:23:43;6.70;;;4.60;;
4563;SDS011;2294;51.818;8.484;2023-03-01T12:26:32;8.23;;;4.33;;
4563;SDS011;2294;51.818;8.484;2023-03-01T12:35:04;6.67;;;4.33;;
4563;SDS011;2294;51.818;8.484;2023-03-01T12:37:47;6.33;;;4.10;;
4563;SDS011;2294;51.818;8.484;2023-03-01T12:43:31;7.77;;;4.50;;
4563;SDS011;2294;51.818;8.484;2023-03-01T12:46:10;7.27;;;4.50;;
4563;SDS011;2294;51.818;8.484;2023-03-01T12:48:53;6.60;;;5.27;;
4563;SDS011;2294;51.818;8.484;2023-03-01T12:51:26;8.17;;;4.47;;
4563;SDS011;2294;51.818;8.484;2023-03-01T12:53:57;7.47;;;4.63;;
4563;SDS011;2294;51.818;8.484;2023-03-01T12:56:28;6.50;;;4.30;;
4563;SDS011;2294;51.818;8.484;2023-03-01T12:59:01;6.10;;;4.30;;
4563;SDS011;2294;51.818;8.484;2023-03-01T13:01:36;6.30;;;4.70;;
4563;SDS011;2294;51.818;8.484;2023-03-01T13:04:21;10.00;;;5.43;;
4563;SDS011;2294;51.818;8.484;2023-03-01T13:06:58;7.27;;;4.90;;
4563;SDS011;2294;51.818;8.484;2023-03-01T13:09:41;12.27;;;4.70;;
4563;SDS011;2294;51.818;8.484;2023-03-01T13:17:55;7.87;;;4.00;;
4563;SDS011;2294;51.818;8.484;2023-03-01T13:20:24;7.10;;;4.90;;
4563;SDS011;2294;51.818;8.484;2023-03-01T13:23:04;7.10;;;4.50;;
4563;SDS011;2294;51.818;8.484;2023-03-01T13:25:35;10.27;;;4.50;;
4563;SDS011;2294;51.818;8.484;2023-03-01T13:28:40;6.13;;;4.50;;
4563;SDS011;2294;51.818;8.484;2023-03-01T13:34:46;6.20;;;4.43;;
4563;SDS011;2294;51.818;8.484;2023-03-01T13:37:33;6.63;;;4.33;;
4563;SDS011;2294;51.818;8.484;2023-03-01T13:43:27;11.10;;;4.13;;
4563;SDS011;2294;51.818;8.484;2023-03-01T13:45:57;8.60;;;4.10;;
4563;SDS011;2294;51.818;8.484;2023-03-01T13:48:26;7.73;;;4.13;;
4563;SDS011;2294;51.818;8.484;2023-03-01T13:50:57;4.67;;;3.70;;
4563;SDS011;2294;51.818;8.484;2023-03-01T13:53:26;6.63;;;4.30;;
4563;SDS011;2294;51.818;8.484;2023-03-01T13:55:56;7.20;;;3.60;;
4563;SDS011;2294;51.818;8.484;2023-03-01T13:58:28;5.50;;;4.00;;
4563;SDS011;2294;51.818;8.484;2023-03-01T14:00:57;4.73;;;3.10;;
4563;SDS011;2294;51.818;8.484;2023-03-01T14:03:25;11.60;;;4.00;;
4563;SDS011;2294;51.818;8.484;2023-03-01T14:06:05;8.10;;;3.87;;
4563;SDS011;2294;51.818;8.484;2023-03-01T14:08:34;7.20;;;3.50;;
4563;SDS011;2294;51.818;8.484;2023-03-01T14:14:11;6.77;;;3.70;;
4563;SDS011;2294;51.818;8.484;2023-03-01T14:16:49;6.60;;;3.70;;
4563;SDS011;2294;51.818;8.484;2023-03-01T14:19:25;4.00;;;3.20;;
4563;SDS011;2294;51.818;8.484;2023-03-01T14:22:03;3.63;;;3.10;;
4563;SDS011;2294;51.818;8.484;2023-03-01T14:24:39;7.70;;;3.77;;
4563;SDS011;2294;51.818;8.484;2023-03-01T14:27:11;6.20;;;4.07;;
4563;SDS011;2294;51.818;8.484;2023-03-01T14:29:39;6.07;;;3.10;;
4563;SDS011;2294;51.818;8.484;2023-03-01T14:32:10;7.30;;;3.93;;
4563;SDS011;2294;51.818;8.484;2023-03-01T14:34:42;5.80;;;3.23;;
4563;SDS011;2294;51.818;8.484;2023-03-01T14:37:14;7.13;;;3.63;;
4563;SDS011;2294;51.818;8.484;2023-03-01T14:39:45;6.17;;;3.67;;
4563;SDS011;2294;51.818;8.484;2023-03-01T14:42:12;8.53;;;3.80;;
4563;SDS011;2294;51.818;8.484;2023-03-01T14:44:41;7.30;;;3.80;;
4563;SDS011;2294;51.818;8.484;2023-03-01T14:47:10;10.47;;;5.37;;
4563;SDS011;2294;51.818;8.484;2023-03-01T14:49:41;5.80;;;3.90;;
4563;SDS011;2294;51.818;8.484;2023-03-01T14:52:17;9.53;;;4.67;;
4563;SDS011;2294;51.818;8.484;2023-03-01T14:54:47;8.93;;;5.10;;
4563;SDS011;2294;51.818;8.484;2023-03-01T14:57:17;7.93;;;4.07;;
4563;SDS011;2294;51.818;8.484;2023-03-01T14:59:46;7.87;;;5.00;;
4563;SDS011;2294;51.818;8.484;2023-03-01T15:02:16;7.93;;;4.87;;
4563;SDS011;2294;51.818;8.484;2023-03-01T15:04:45;8.03;;;5.10;;
4563;SDS011;2294;51.818;8.484;2023-03-01T15:07:14;5.60;;;4.30;;
4563;SDS011;2294;51.818;8.484;2023-03-01T15:09:43;7.53;;;4.53;;
4563;SDS011;2294;51.818;8.484;2023-03-01T15:18:14;6.30;;;4.20;;
4563;SDS011;2294;51.818;8.484;2023-03-01T15:20:44;7.50;;;4.83;;
4563;SDS011;2294;51.818;8.484;2023-03-01T15:23:23;6.83;;;4.80;;
4563;SDS011;2294;51.818;8.484;2023-03-01T15:25:52;8.53;;;5.10;;
4563;SDS011;2294;51.818;8.484;2023-03-01T15:28:23;12.00;;;4.97;;
4563;SDS011;2294;51.818;8.484;2023-03-01T15:30:53;8.10;;;4.83;;
4563;SDS011;2294;51.818;8.484;2023-03-01T15:33:28;14.33;;;7.20;;
4563;SDS011;2294;51.818;8.484;2023-03-01T15:35:57;8.17;;;5.13;;
4563;SDS011;2294;51.818;8.484;2023-03-01T15:38:30;9.17;;;5.00;;
4563;SDS011;2294;51.818;8.484;2023-03-01T15:41:00;12.10;;;5.97;;
4563;SDS011;2294;51.818;8.484;2023-03-01T15:43:36;10.10;;;6.27;;
4563;SDS011;2294;51.818;8.484;2023-03-01T15:46:10;9.03;;;5.20;;
4563;SDS011;2294;51.818;8.484;2023-03-01T15:48:44;7.37;;;4.80;;
4563;SDS011;2294;51.818;8.484;2023-03-01T15:51:12;10.47;;;5.30;;
4563;SDS011;2294;51.818;8.484;2023-03-01T15:53:42;8.43;;;5.23;;
4563;SDS011;2294;51.818;8.484;2023-03-01T15:56:14;11.20;;;7.30;;
4563;SDS011;2294;51.818;8.484;2023-03-01T15:58:41;11.60;;;6.40;;
4563;SDS011;2294;51.818;8.484;2023-03-01T16:01:09;10.77;;;5.63;;
4563;SDS011;2294;51.818;8.484;2023-03-01T16:03:39;9.77;;;5.07;;
4563;SDS011;2294;51.818;8.484;2023-03-01T16:06:07;11.07;;;5.40;;
4563;SDS011;2294;51.818;8.484;2023-03-01T16:08:35;8.70;;;4.83;;
4563;SDS011;2294;51.818;8.484;2023-03-01T16:11:04;7.00;;;4.80;;
4563;SDS011;2294;51.818;8.484;2023-03-01T16:13:35;7.60;;;5.47;;
4563;SDS011;2294;51.818;8.484;2023-03-01T16:16:02;8.63;;;5.00;;